Time;durP1;ratioP1;P1;durP2;ratioP2;P2;SDS_P1;SDS_P2;PMS_P1;PMS_P2;Temp;Humidity;BMP_temperature;BMP_pressure;BME280_temperature;BME280_humidity;BME280_pressure;Samples;Min_cycle;Max_cycle;Signal;HPM_P1;HPM_P2
2022/10/20 00:01:39;;;;;;;;;17.00;15.00;;;;;15.28;100.00;100230.09;4954392;28;52721;-84
2022/10/20 00:04:05;;;;;;;;;18.00;18.00;;;;;16.04;100.00;100360.75;4954564;28;46844;-85
2022/10/20 00:06:32;;;;;;;;;18.50;16.25;;;;;15.94;100.00;100340.78;4955649;28;45413;-85
2022/10/20 00:09:00;;;;;;;;;15.00;13.50;;;;;15.26;100.00;100242.59;4956812;28;45322;-85
2022/10/20 00:11:26;;;;;;;;;19.00;18.50;;;;;15.90;100.00;100344.53;4958994;28;45275;-85
2022/10/20 00:13:53;;;;;;;;;20.25;18.50;;;;;15.84;100.00;100332.34;4956363;28;45333;-85
2022/10/20 00:16:20;;;;;;;;;15.00;13.50;;;;;15.50;100.00;100277.03;4955488;28;45499;-85
2022/10/20 00:18:46;;;;;;;;;15.50;13.75;;;;;16.26;100.00;100391.75;4942836;28;45352;-85
2022/10/20 00:21:14;;;;;;;;;16.75;14.75;;;;;15.69;100.00;100299.25;4956229;28;45286;-84
2022/10/20 00:23:39;;;;;;;;;19.75;15.75;;;;;16.26;100.00;100394.41;4954691;28;47291;-85
2022/10/20 00:26:08;;;;;;;;;17.50;16.00;;;;;16.12;100.00;100365.72;4955584;28;45431;-85
2022/10/20 00:28:33;;;;;;;;;16.75;15.75;;;;;16.10;100.00;100357.81;4955553;28;45505;-85
2022/10/20 00:30:59;;;;;;;;;20.50;19.50;;;;;16.16;100.00;100370.00;4957410;28;45244;-84
2022/10/20 00:33:24;;;;;;;;;18.25;15.25;;;;;15.85;100.00;100327.88;4960794;28;45374;-85
2022/10/20 00:35:50;;;;;;;;;14.75;14.75;;;;;15.94;100.00;100330.13;4974874;28;45482;-84
2022/10/20 00:38:15;;;;;;;;;16.25;14.25;;;;;15.20;100.00;100210.94;4967389;28;45450;-85
2022/10/20 00:40:40;;;;;;;;;14.75;14.00;;;;;15.62;100.00;100287.13;4936448;28;45393;-85
2022/10/20 00:43:12;;;;;;;;;16.00;15.00;;;;;16.22;100.00;100374.19;4936556;28;45410;-85
2022/10/20 00:45:38;;;;;;;;;14.00;13.75;;;;;16.09;100.00;100356.06;4935574;28;46070;-85
2022/10/20 00:48:10;;;;;;;;;16.75;16.75;;;;;15.69;100.00;100291.25;4951549;28;45239;-85
2022/10/20 00:50:42;;;;;;;;;17.25;15.50;;;;;15.91;100.00;100320.50;4954768;28;45412;-85
2022/10/20 00:53:09;;;;;;;;;16.50;16.50;;;;;16.04;100.00;100334.09;4954152;28;47798;-85
2022/10/20 00:55:40;;;;;;;;;16.00;14.50;;;;;15.95;100.00;100321.19;4954128;28;45389;-85
2022/10/20 00:58:05;;;;;;;;;17.50;13.25;;;;;16.07;100.00;100349.09;4954792;28;45603;-85
2022/10/20 01:00:31;;;;;;;;;14.25;13.25;;;;;15.68;100.00;100278.84;4956007;28;45373;-85
2022/10/20 01:03:02;;;;;;;;;16.00;14.25;;;;;15.69;100.00;100269.94;4953856;28;47221;-84
2022/10/20 01:05:27;;;;;;;;;12.75;12.75;;;;;15.99;100.00;100318.31;4955801;28;45468;-85
2022/10/20 01:07:53;;;;;;;;;16.25;16.25;;;;;15.13;100.00;100181.06;4955527;28;45457;-85
2022/10/20 01:10:19;;;;;;;;;13.75;13.75;;;;;15.56;100.00;100247.47;4955531;28;45619;-85
2022/10/20 01:13:12;;;;;;;;;13.75;13.75;;;;;16.13;100.00;100354.13;4957786;28;48136;-84
2022/10/20 01:15:50;;;;;;;;;14.75;14.75;;;;;15.56;100.00;100277.66;4959258;28;45333;-85
2022/10/20 01:18:34;;;;;;;;;16.25;16.00;;;;;16.08;100.00;100370.34;4944466;28;45395;-84
2022/10/20 01:21:25;;;;;;;;;14.50;14.00;;;;;16.04;100.00;100374.06;4939259;28;45314;-85
2022/10/20 01:24:13;;;;;;;;;17.75;16.50;;;;;15.08;100.00;100218.53;4939833;28;45362;-85
2022/10/20 01:27:06;;;;;;;;;15.00;14.00;;;;;15.37;100.00;100266.94;4938167;28;45571;-85
2022/10/20 01:29:56;;;;;;;;;17.00;15.00;;;;;15.93;100.00;100382.56;4938183;28;45473;-85
2022/10/20 01:32:31;;;;;;;;;20.75;17.00;;;;;15.83;100.00;100370.59;4944272;28;45422;-85
2022/10/20 01:35:08;;;;;;;;;14.75;12.75;;;;;15.72;100.00;100347.06;4958772;28;45751;-85
2022/10/20 01:37:33;;;;;;;;;17.00;14.75;;;;;15.90;100.00;100384.53;4958746;28;45460;-85
2022/10/20 01:40:11;;;;;;;;;13.75;13.75;;;;;15.53;100.00;100335.50;4959497;28;45463;-85
2022/10/20 01:42:41;;;;;;;;;15.00;15.00;;;;;15.91;100.00;100396.88;4970169;28;45617;-85
2022/10/20 01:45:07;;;;;;;;;18.50;16.25;;;;;14.85;100.00;100238.16;4959979;28;46575;-87
2022/10/20 01:47:34;;;;;;;;;17.00;14.75;;;;;15.93;100.00;100435.00;4938132;28;45918;-84
2022/10/20 01:50:03;;;;;;;;;16.00;14.75;;;;;14.87;100.00;100240.75;4940164;28;45423;-86
2022/10/20 01:52:29;;;;;;;;;16.50;14.25;;;;;15.77;100.00;100390.38;4954394;28;45659;-85
2022/10/20 01:54:54;;;;;;;;;16.00;14.25;;;;;15.86;100.00;100437.06;4956880;28;48130;-86
2022/10/20 01:57:48;;;;;;;;;15.75;15.75;;;;;15.90;100.00;100425.34;4959268;28;45414;-87
2022/10/20 02:00:15;;;;;;;;;20.00;16.50;;;;;15.88;100.00;100416.56;4958957;28;45381;-87
2022/10/20 02:03:13;;;;;;;;;14.50;10.50;;;;;15.85;100.00;100394.50;4958472;28;45396;-87
2022/10/20 02:05:46;;;;;;;;;12.75;11.75;;;;;15.51;100.00;100329.38;4955302;28;48078;-85
2022/10/20 02:08:41;;;;;;;;;14.75;13.25;;;;;15.88;100.00;100373.03;4956916;28;45501;-86
2022/10/20 02:11:13;;;;;;;;;11.50;11.50;;;;;15.14;100.00;100233.38;4944588;28;45359;-86
2022/10/20 02:13:41;;;;;;;;;14.75;12.50;;;;;15.48;100.00;100276.25;4957160;28;45520;-86
2022/10/20 02:16:17;;;;;;;;;16.75;14.00;;;;;15.62;100.00;100300.44;4958389;28;45542;-86
2022/10/20 02:18:45;;;;;;;;;13.50;13.00;;;;;15.27;100.00;100204.38;4958073;28;45375;-86
2022/10/20 02:21:11;;;;;;;;;13.25;13.25;;;;;15.37;100.00;100208.38;4971786;28;45268;-86
2022/10/20 02:23:39;;;;;;;;;14.50;12.50;;;;;15.63;100.00;100222.28;4975309;28;45475;-86
2022/10/20 02:26:08;;;;;;;;;13.75;11.00;;;;;15.65;100.00;100233.72;4977973;28;46517;-86
2022/10/20 02:28:39;;;;;;;;;13.00;11.75;;;;;16.14;100.00;100311.41;4979666;28;45460;-86
2022/10/20 02:31:05;;;;;;;;;12.00;12.00;;;;;15.19;100.00;100102.72;4991547;28;45287;-86
2022/10/20 02:33:32;;;;;;;;;12.50;10.75;;;;;15.64;100.00;100186.72;4980290;28;45199;-87
2022/10/20 02:35:58;;;;;;;;;12.50;10.75;;;;;16.19;100.00;100227.69;4960248;28;46239;-87
2022/10/20 02:38:24;;;;;;;;;11.25;10.00;;;;;15.73;100.00;100117.03;4956347;28;45914;-87
2022/10/20 02:40:50;;;;;;;;;13.25;8.00;;;;;15.95;100.00;100134.66;4956321;28;45580;-86
2022/10/20 02:43:15;;;;;;;;;11.00;8.50;;;;;15.53;100.00;100053.19;4956894;28;45470;-87
2022/10/20 02:45:41;;;;;;;;;8.25;7.00;;;;;16.41;100.00;100180.31;4958282;28;45543;-86
2022/10/20 02:48:08;;;;;;;;;7.75;6.00;;;;;16.67;100.00;100231.50;4958072;28;45404;-86
2022/10/20 02:50:34;;;;;;;;;7.00;6.75;;;;;15.72;100.00;100070.00;4956883;28;45390;-85
2022/10/20 02:53:00;;;;;;;;;7.75;7.00;;;;;16.02;99.93;100119.19;4956962;28;45389;-86
2022/10/20 02:55:25;;;;;;;;;6.00;6.00;;;;;16.20;98.61;100144.06;4958000;28;46517;-86
2022/10/20 02:57:52;;;;;;;;;10.00;6.75;;;;;15.98;97.40;100105.19;4957940;28;45413;-86
2022/10/20 03:00:18;;;;;;;;;12.75;8.75;;;;;16.24;96.72;100151.84;4957763;28;45465;-86
2022/10/20 03:02:44;;;;;;;;;8.50;7.50;;;;;16.12;96.67;100148.00;4956432;28;45504;-86
2022/10/20 03:05:09;;;;;;;;;5.50;5.00;;;;;16.74;96.58;100232.91;4971257;28;47702;-86
2022/10/20 03:07:34;;;;;;;;;5.75;5.75;;;;;16.23;96.67;100149.25;4939169;28;45432;-86
2022/10/20 03:09:59;;;;;;;;;5.00;5.00;;;;;16.45;96.45;100176.56;4937260;28;53044;-86
2022/10/20 03:12:25;;;;;;;;;4.75;3.75;;;;;16.43;96.40;100181.13;4952423;28;45346;-87
2022/10/20 03:14:50;;;;;;;;;5.00;4.00;;;;;16.69;96.08;100219.81;4942843;28;61156;-87
2022/10/20 03:17:15;;;;;;;;;6.25;5.25;;;;;16.76;96.81;100224.84;4938138;28;45532;-86
2022/10/20 03:19:41;;;;;;;;;5.00;5.00;;;;;16.42;97.71;100176.72;4959264;28;45527;-87
2022/10/20 03:22:06;;;;;;;;;11.50;7.25;;;;;16.56;97.43;100181.34;4958702;28;45280;-87
2022/10/20 03:24:31;;;;;;;;;6.00;5.25;;;;;16.01;97.95;100085.50;4955941;28;46277;-87
2022/10/20 03:26:57;;;;;;;;;6.00;6.00;;;;;16.00;97.81;100100.63;4956127;28;45258;-87
2022/10/20 03:29:23;;;;;;;;;6.50;5.50;;;;;16.31;98.60;100168.41;4955926;28;45305;-87
2022/10/20 03:31:48;;;;;;;;;5.25;5.25;;;;;15.91;98.76;100117.06;4957633;28;45330;-87
2022/10/20 03:34:13;;;;;;;;;5.00;5.00;;;;;16.45;99.18;100211.25;4955380;28;47285;-87
2022/10/20 03:36:39;;;;;;;;;5.00;4.75;;;;;16.25;98.83;100184.72;4955438;28;45377;-86
2022/10/20 03:39:04;;;;;;;;;6.75;6.75;;;;;16.39;100.00;100213.38;4956136;28;45590;-86
2022/10/20 03:41:29;;;;;;;;;6.25;6.25;;;;;16.08;100.00;100162.44;4955751;28;45502;-86
2022/10/20 03:43:55;;;;;;;;;8.00;5.00;;;;;15.88;100.00;100138.53;4955770;28;48251;-86
2022/10/20 03:46:20;;;;;;;;;6.50;5.50;;;;;15.78;100.00;100136.31;4955490;28;45585;-86
2022/10/20 03:48:45;;;;;;;;;6.75;6.00;;;;;16.38;100.00;100271.16;4955518;28;45440;-87
2022/10/20 03:51:12;;;;;;;;;7.50;7.50;;;;;15.73;100.00;100159.66;4954559;28;45620;-87
2022/10/20 03:53:38;;;;;;;;;7.25;6.25;;;;;16.70;100.00;100328.28;4939666;28;46432;-87
2022/10/20 03:56:08;;;;;;;;;7.00;5.25;;;;;16.34;100.00;100269.59;4952614;28;45837;-87
2022/10/20 03:58:34;;;;;;;;;6.00;6.00;;;;;16.38;100.00;100281.81;4937904;28;45374;-86
2022/10/20 04:01:00;;;;;;;;;4.00;4.00;;;;;16.31;100.00;100281.25;4938143;28;45307;-86
2022/10/20 04:03:25;;;;;;;;;4.50;4.50;;;;;16.14;100.00;100275.91;4937769;28;45440;-86
2022/10/20 04:05:50;;;;;;;;;5.75;4.25;;;;;15.49;100.00;100144.81;4952340;28;45380;-86
2022/10/20 04:08:16;;;;;;;;;7.50;5.75;;;;;16.26;100.00;100266.41;4951892;28;45543;-85
2022/10/20 04:10:42;;;;;;;;;9.00;8.50;;;;;16.38;100.00;100286.31;4952193;28;45302;-85
2022/10/20 04:13:07;;;;;;;;;14.50;11.00;;;;;15.60;100.00;100154.03;4935789;28;45315;-86
2022/10/20 04:15:33;;;;;;;;;6.50;5.50;;;;;15.79;100.00;100215.34;4937141;28;45344;-86
2022/10/20 04:17:58;;;;;;;;;10.75;8.00;;;;;15.75;100.00;100213.72;4937026;28;45423;-86
2022/10/20 04:20:23;;;;;;;;;10.75;6.00;;;;;15.49;100.00;100159.00;4954685;28;45581;-86
2022/10/20 04:22:49;;;;;;;;;6.00;6.00;;;;;15.22;100.00;100123.88;4957407;28;47207;-86
2022/10/20 04:25:14;;;;;;;;;8.25;7.00;;;;;15.12;100.00;100090.63;4940923;28;45315;-86
2022/10/20 04:27:40;;;;;;;;;14.25;8.00;;;;;16.26;100.00;100266.41;4973312;28;45440;-87
2022/10/20 04:30:07;;;;;;;;;13.00;9.50;;;;;15.02;100.00;100072.44;4945913;28;45278;-87
2022/10/20 04:32:44;;;;;;;;;10.25;8.50;;;;;15.52;100.00;100179.31;4950065;28;45274;-86
2022/10/20 04:35:10;;;;;;;;;7.25;7.25;;;;;15.33;100.00;100148.19;4948016;28;45378;-86
2022/10/20 04:37:35;;;;;;;;;12.00;10.50;;;;;15.51;100.00;100197.06;4956477;28;45254;-86
2022/10/20 04:40:00;;;;;;;;;9.00;9.00;;;;;16.21;100.00;100306.63;4937282;28;45622;-86
2022/10/20 04:42:26;;;;;;;;;9.75;9.75;;;;;15.51;100.00;100182.91;4959227;28;47382;-86
2022/10/20 04:44:51;;;;;;;;;10.50;10.50;;;;;15.83;100.00;100223.19;4976837;28;47556;-87
2022/10/20 04:47:16;;;;;;;;;11.25;9.50;;;;;15.73;100.00;100207.59;4971353;28;45417;-87
2022/10/20 04:49:43;;;;;;;;;7.75;6.75;;;;;15.21;100.00;100132.78;4959352;28;45382;-87
2022/10/20 04:52:36;;;;;;;;;7.50;6.75;;;;;16.17;100.00;100297.09;4960536;28;45654;-87
2022/10/20 04:55:01;;;;;;;;;13.50;9.00;;;;;16.20;100.00;100293.38;4955806;28;45806;-87
2022/10/20 04:57:27;;;;;;;;;6.75;4.50;;;;;15.09;100.00;100108.47;4937829;28;45433;-87
2022/10/20 04:59:52;;;;;;;;;9.75;8.75;;;;;15.52;100.00;100174.00;4952160;28;45302;-87
2022/10/20 05:02:17;;;;;;;;;10.00;9.25;;;;;15.63;100.00;100201.81;4952070;28;47025;-87
2022/10/20 05:04:43;;;;;;;;;10.75;6.50;;;;;15.70;100.00;100229.06;4937033;28;45366;-87
2022/10/20 05:07:08;;;;;;;;;9.00;9.00;;;;;15.30;100.00;100164.31;4935808;28;45836;-87
2022/10/20 05:09:34;;;;;;;;;6.75;6.00;;;;;15.76;100.00;100242.09;4951960;28;45524;-88
2022/10/20 05:11:59;;;;;;;;;10.75;8.50;;;;;15.40;100.00;100207.38;4937186;28;46675;-87
2022/10/20 05:14:25;;;;;;;;;9.75;7.25;;;;;15.43;100.00;100212.56;4936745;28;45522;-88
2022/10/20 05:16:50;;;;;;;;;11.25;8.50;;;;;15.24;100.00;100186.78;4968393;28;45418;-87
2022/10/20 05:19:16;;;;;;;;;10.00;10.00;;;;;15.85;100.00;100264.81;4937334;28;45667;-87
2022/10/20 05:21:42;;;;;;;;;10.50;10.00;;;;;15.50;100.00;100202.47;4990570;28;47093;-87
2022/10/20 05:24:13;;;;;;;;;12.25;10.25;;;;;15.66;100.00;100245.25;4974150;28;45877;-87
2022/10/20 05:26:38;;;;;;;;;12.00;9.50;;;;;15.59;100.00;100244.66;4942497;28;45524;-87
2022/10/20 05:29:06;;;;;;;;;14.25;11.00;;;;;15.88;100.00;100287.75;4936915;28;45473;-87
2022/10/20 05:31:39;;;;;;;;;8.25;8.25;;;;;15.44;100.00;100227.56;4967428;28;47791;-87
2022/10/20 05:34:05;;;;;;;;;13.25;7.00;;;;;15.52;100.00;100237.91;4936373;28;45490;-87
2022/10/20 05:36:31;;;;;;;;;11.00;10.00;;;;;15.60;100.00;100257.91;4935404;28;45512;-87
2022/10/20 05:38:56;;;;;;;;;11.50;7.00;;;;;16.07;100.00;100336.63;4937136;28;45476;-87
2022/10/20 05:41:27;;;;;;;;;10.00;8.50;;;;;15.91;100.00;100308.94;4935822;28;47526;-87
2022/10/20 05:43:56;;;;;;;;;6.50;5.50;;;;;15.75;100.00;100277.66;4945675;28;45391;-87
2022/10/20 05:46:22;;;;;;;;;10.00;7.00;;;;;15.65;100.00;100260.34;4936173;28;45479;-87
2022/10/20 05:48:47;;;;;;;;;9.75;6.75;;;;;15.63;100.00;100252.44;4937208;28;45338;-87
2022/10/20 05:51:16;;;;;;;;;8.25;6.00;;;;;15.31;100.00;100192.66;4951372;28;46600;-87
2022/10/20 05:53:43;;;;;;;;;5.50;4.50;;;;;15.70;100.00;100269.00;4936493;28;45503;-87
2022/10/20 05:56:11;;;;;;;;;5.00;5.00;;;;;15.91;100.00;100295.63;4936594;28;45433;-89
2022/10/20 05:58:38;;;;;;;;;6.00;6.00;;;;;15.94;100.00;100309.69;4967482;28;45468;-88
2022/10/20 06:01:12;;;;;;;;;7.75;6.25;;;;;15.92;100.00;100297.34;4980008;28;48059;-92
2022/10/20 06:03:38;;;;;;;;;8.25;6.50;;;;;15.39;100.00;100210.94;4959345;28;45432;-90
2022/10/20 06:06:03;;;;;;;;;7.75;5.75;;;;;15.53;100.00;100219.19;4973553;28;45492;-90
2022/10/20 06:08:33;;;;;;;;;2.00;2.00;;;;;15.83;100.00;100258.66;4947039;28;45682;-88
2022/10/20 06:11:09;;;;;;;;;7.25;7.00;;;;;15.67;100.00;100210.56;4939798;28;47081;-87
2022/10/20 06:13:35;;;;;;;;;6.25;6.25;;;;;15.28;100.00;100136.91;4942195;28;45500;-87
2022/10/20 06:16:09;;;;;;;;;4.00;4.00;;;;;15.26;100.00;100120.16;4937379;28;45390;-86
2022/10/20 06:18:37;;;;;;;;;5.25;4.50;;;;;15.09;100.00;100094.28;4937576;28;45438;-86
2022/10/20 06:21:17;;;;;;;;;5.50;5.25;;;;;15.73;100.00;100202.28;4952098;28;48177;-86
2022/10/20 06:23:42;;;;;;;;;6.00;6.00;;;;;15.39;100.00;100145.25;4955371;28;45798;-85
2022/10/20 06:26:11;;;;;;;;;8.50;6.00;;;;;15.30;100.00;100112.88;4946007;28;45362;-86
2022/10/20 06:28:37;;;;;;;;;11.00;7.00;;;;;15.66;100.00;100170.66;4946222;28;45541;-86
2022/10/20 06:31:19;;;;;;;;;4.50;4.50;;;;;15.65;100.00;100167.13;4948041;28;45393;-91
2022/10/20 06:33:45;;;;;;;;;5.75;5.75;;;;;15.12;100.00;100098.63;4940658;28;45456;-90
2022/10/20 06:36:23;;;;;;;;;7.50;7.00;;;;;15.63;100.00;100175.19;4954214;28;45476;-89
2022/10/20 06:38:53;;;;;;;;;8.50;8.50;;;;;15.09;100.00;100081.88;4945938;28;45545;-86
2022/10/20 06:41:19;;;;;;;;;8.75;6.00;;;;;15.27;100.00;100117.41;4940653;28;46280;-85
2022/10/20 06:43:44;;;;;;;;;8.25;6.75;;;;;14.88;100.00;100056.25;4946679;28;45741;-85
2022/10/20 06:46:13;;;;;;;;;9.00;7.00;;;;;14.70;100.00;100034.03;4944917;28;45522;-86
2022/10/20 06:48:38;;;;;;;;;6.50;6.50;;;;;14.92;100.00;100085.31;4941638;28;45623;-84
2022/10/20 06:51:06;;;;;;;;;6.50;5.75;;;;;15.59;100.00;100207.38;4945782;28;47335;-86
2022/10/20 06:53:33;;;;;;;;;8.25;6.25;;;;;15.33;100.00;100180.13;4947190;28;45373;-85
2022/10/20 06:56:01;;;;;;;;;5.00;4.75;;;;;14.63;100.00;100083.09;4948408;28;45512;-85
2022/10/20 06:58:27;;;;;;;;;8.25;6.00;;;;;14.51;100.00;100058.72;4938560;28;45562;-85
2022/10/20 07:01:05;;;;;;;;;4.00;4.00;;;;;15.36;100.00;100224.41;4953849;28;46450;-87
2022/10/20 07:03:32;;;;;;;;;9.00;8.50;;;;;15.12;100.00;100202.41;4945869;28;45303;-89
2022/10/20 07:05:58;;;;;;;;;6.75;5.50;;;;;15.50;100.00;100269.94;4955577;28;45497;-88
2022/10/20 07:08:26;;;;;;;;;7.75;6.00;;;;;14.46;100.00;100108.59;4955999;28;45457;-86
2022/10/20 07:11:04;;;;;;;;;9.00;8.00;;;;;14.88;100.00;100184.81;4949262;28;45373;-87
2022/10/20 07:13:32;;;;;;;;;7.50;7.00;;;;;15.44;100.00;100268.41;4949859;28;45350;-88
2022/10/20 07:15:58;;;;;;;;;9.75;5.50;;;;;15.02;100.00;100212.63;4958842;28;45469;-88
2022/10/20 07:18:25;;;;;;;;;7.25;7.25;;;;;15.57;100.00;100298.00;4960368;28;45515;-86
2022/10/20 07:20:51;;;;;;;;;6.75;6.25;;;;;15.58;100.00;100313.06;4951536;28;47079;-86
2022/10/20 07:23:16;;;;;;;;;9.00;6.00;;;;;15.00;100.00;100204.72;4955533;28;45437;-88
2022/10/20 07:25:42;;;;;;;;;6.00;5.50;;;;;14.68;100.00;100148.47;4953604;28;45419;-87
2022/10/20 07:28:08;;;;;;;;;9.00;7.25;;;;;15.57;100.00;100305.13;4965851;28;45566;-88
2022/10/20 07:30:38;;;;;;;;;5.00;5.00;;;;;15.57;100.00;100315.78;4949511;28;47552;-88
2022/10/20 07:33:04;;;;;;;;;6.75;6.00;;;;;15.17;100.00;100243.88;4953947;28;45507;-88
2022/10/20 07:35:29;;;;;;;;;7.75;7.00;;;;;15.03;100.00;100214.31;4949954;28;45346;-88
2022/10/20 07:37:54;;;;;;;;;6.75;5.50;;;;;15.20;100.00;100243.75;4943933;28;45481;-88
2022/10/20 07:40:20;;;;;;;;;8.75;3.25;;;;;15.16;100.00;100198.69;4963032;28;46945;-87
2022/10/20 07:42:45;;;;;;;;;13.00;6.25;;;;;15.00;100.00;100140.84;4954577;28;45334;-88
2022/10/20 07:45:10;;;;;;;;;10.50;7.25;;;;;15.20;100.00;100141.72;4959779;28;45377;-88
2022/10/20 07:47:36;;;;;;;;;10.00;8.50;;;;;15.36;100.00;100132.06;4950018;28;45332;-88
2022/10/20 07:50:01;;;;;;;;;6.75;6.75;;;;;16.13;100.00;100208.38;4947712;28;46244;-87
2022/10/20 07:52:29;;;;;;;;;10.00;6.75;;;;;15.91;100.00;100135.72;4948479;28;45915;-88
2022/10/20 07:54:54;;;;;;;;;8.25;8.25;;;;;16.00;100.00;100137.94;4953945;28;45330;-87
2022/10/20 07:57:20;;;;;;;;;8.50;7.00;;;;;16.15;100.00;100142.53;4955691;28;45513;-89
2022/10/20 07:59:45;;;;;;;;;7.25;7.25;;;;;16.86;100.00;100243.00;4941864;28;45943;-88
2022/10/20 08:02:12;;;;;;;;;6.00;4.00;;;;;16.76;100.00;100233.72;4946988;28;45355;-88
2022/10/20 08:04:37;;;;;;;;;6.75;5.75;;;;;17.06;100.00;100281.16;4957937;28;45477;-88
2022/10/20 08:07:03;;;;;;;;;8.50;7.25;;;;;16.08;100.00;100135.78;4949620;28;45492;-87
2022/10/20 08:09:28;;;;;;;;;5.00;5.00;;;;;17.09;100.00;100302.34;4956826;28;45971;-88
2022/10/20 08:11:54;;;;;;;;;7.75;5.75;;;;;16.30;100.00;100161.34;4963360;28;45486;-88
2022/10/20 08:14:19;;;;;;;;;9.00;9.00;;;;;16.56;100.00;100172.50;4952979;28;45508;-88
2022/10/20 08:16:44;;;;;;;;;6.00;6.00;;;;;16.40;100.00;100122.59;4942161;28;45479;-89
2022/10/20 08:19:10;;;;;;;;;6.00;5.00;;;;;17.13;97.37;100247.84;4952415;28;46525;-87
2022/10/20 08:21:36;;;;;;;;;7.25;6.00;;;;;16.86;98.72;100210.06;4942336;28;45393;-88
2022/10/20 08:24:02;;;;;;;;;4.00;4.00;;;;;16.41;97.17;100169.66;4959313;28;45485;-88
2022/10/20 08:26:28;;;;;;;;;6.25;4.50;;;;;15.64;97.11;100061.53;4940657;28;45718;-89
2022/10/20 08:28:54;;;;;;;;;5.75;5.00;;;;;16.27;98.58;100182.84;4946447;28;47243;-90
2022/10/20 08:31:23;;;;;;;;;5.25;5.00;;;;;16.39;99.92;100224.88;4950812;28;45318;-89
2022/10/20 08:33:49;;;;;;;;;4.25;4.25;;;;;16.71;99.46;100283.78;4940771;28;45592;-90
2022/10/20 08:36:15;;;;;;;;;3.00;3.00;;;;;16.42;99.08;100245.22;4947217;28;45506;-89
2022/10/20 08:38:42;;;;;;;;;4.75;4.75;;;;;16.29;98.68;100228.94;4943532;28;47221;-88
2022/10/20 08:41:23;;;;;;;;;5.00;3.75;;;;;16.39;100.00;100246.22;4958900;28;45306;-88
2022/10/20 08:43:53;;;;;;;;;4.25;4.25;;;;;16.69;100.00;100312.34;4945928;28;45499;-88
2022/10/20 08:46:26;;;;;;;;;4.00;4.00;;;;;16.68;100.00;100316.78;4942329;28;45522;-88
2022/10/20 08:48:51;;;;;;;;;7.00;5.25;;;;;16.17;100.00;100235.75;4948325;28;45424;-89
2022/10/20 08:51:20;;;;;;;;;5.00;4.75;;;;;15.88;100.00;100186.50;4945511;28;45441;-88
2022/10/20 08:53:48;;;;;;;;;7.25;5.00;;;;;16.66;100.00;100312.50;4944279;28;45522;-88
2022/10/20 08:56:14;;;;;;;;;4.00;2.75;;;;;16.12;100.00;100222.66;4944908;28;45516;-88
2022/10/20 08:58:49;;;;;;;;;4.00;4.00;;;;;16.59;100.00;100311.06;4946544;28;47078;-89
2022/10/20 09:01:43;;;;;;;;;5.25;5.00;;;;;16.58;100.00;100314.66;4948982;28;45526;-88
2022/10/20 09:04:22;;;;;;;;;4.00;4.00;;;;;16.03;100.00;100204.41;4948029;28;45532;-88
2022/10/20 09:06:53;;;;;;;;;2.75;2.75;;;;;16.44;100.00;100233.53;4945899;28;45484;-88
2022/10/20 09:09:22;;;;;;;;;2.25;2.25;;;;;17.42;98.66;100322.06;4950465;28;47131;-89
2022/10/20 09:11:48;;;;;;;;;6.75;4.00;;;;;17.28;95.37;100231.94;4972951;28;45585;-88
2022/10/20 09:14:15;;;;;;;;;7.00;5.75;;;;;17.15;94.03;100160.50;4950120;28;45351;-88
2022/10/20 09:16:42;;;;;;;;;2.50;2.50;;;;;18.26;92.47;100322.81;4962823;28;45740;-89
2022/10/20 09:19:22;;;;;;;;;5.00;2.00;;;;;17.87;91.62;100229.63;4952791;28;45582;-87
2022/10/20 09:21:54;;;;;;;;;3.50;3.50;;;;;18.57;90.47;100314.88;4957310;28;45429;-90
2022/10/20 09:24:21;;;;;;;;;2.75;2.75;;;;;18.70;89.35;100305.19;4951648;28;45763;-90
2022/10/20 09:26:49;;;;;;;;;6.75;4.00;;;;;18.57;88.53;100227.44;4956581;28;45432;-90
2022/10/20 09:29:20;;;;;;;;;3.00;2.25;;;;;18.76;88.32;100221.00;4947497;28;46188;-89
2022/10/20 09:31:52;;;;;;;;;3.25;2.50;;;;;19.08;81.99;100210.19;4947706;28;45428;-88
2022/10/20 09:34:29;;;;;;;;;3.75;3.75;;;;;19.20;83.44;100220.13;4944632;28;45524;-88
2022/10/20 09:37:07;;;;;;;;;2.00;2.00;;;;;19.67;79.42;100291.34;4958449;28;45437;-89
2022/10/20 09:39:47;;;;;;;;;3.25;2.50;;;;;19.24;82.59;100227.03;4947281;28;46422;-88
2022/10/20 09:42:17;;;;;;;;;3.75;3.75;;;;;19.59;82.47;100285.63;4969592;28;45374;-90
2022/10/20 09:44:50;;;;;;;;;2.00;2.00;;;;;19.59;83.05;100292.81;4986224;28;45312;-91
2022/10/20 09:47:16;;;;;;;;;4.00;3.00;;;;;18.77;82.12;100147.78;4953506;28;45319;-87
2022/10/20 09:49:44;;;;;;;;;2.00;2.00;;;;;19.20;82.87;100211.25;4948051;28;46845;-88
2022/10/20 09:52:22;;;;;;;;;2.50;2.50;;;;;19.43;82.44;100204.47;4953688;28;45409;-88
2022/10/20 09:54:49;;;;;;;;;3.00;2.00;;;;;19.58;78.96;100213.34;4949716;28;45491;-88
2022/10/20 09:57:21;;;;;;;;;4.25;4.25;;;;;19.41;78.99;100196.50;4953879;28;45381;-88
2022/10/20 09:59:52;;;;;;;;;2.50;2.50;;;;;19.57;76.42;100219.66;4950264;28;46539;-88
2022/10/20 10:02:20;;;;;;;;;2.75;2.00;;;;;20.03;77.37;100291.84;4953018;28;45770;-87
2022/10/20 10:04:48;;;;;;;;;3.00;3.00;;;;;20.01;76.54;100281.22;4958826;28;45493;-87
2022/10/20 10:07:25;;;;;;;;;5.00;4.00;;;;;20.11;77.51;100283.31;4951291;28;45488;-88
2022/10/20 10:10:25;;;;;;;;;3.00;2.00;;;;;19.44;79.52;100158.81;4959192;28;46708;-88
2022/10/20 10:12:52;;;;;;;;;3.00;1.75;;;;;20.39;79.72;100285.94;4954438;28;45532;-87
2022/10/20 10:15:21;;;;;;;;;4.00;2.50;;;;;20.57;78.51;100272.22;4940948;28;45580;-88
2022/10/20 10:17:51;;;;;;;;;3.00;2.75;;;;;20.74;75.79;100284.56;4941040;28;45350;-88
2022/10/20 10:20:16;;;;;;;;;1.75;1.00;;;;;20.58;72.87;100279.34;4967966;28;47329;-88
2022/10/20 10:22:42;;;;;;;;;2.50;2.00;;;;;19.63;72.75;100155.81;4957512;28;45498;-89
2022/10/20 10:25:22;;;;;;;;;2.75;1.75;;;;;19.80;74.24;100212.84;4961140;28;45504;-87
2022/10/20 10:28:05;;;;;;;;;2.00;2.00;;;;;20.13;77.35;100267.97;4949097;28;45689;-89
2022/10/20 10:30:37;;;;;;;;;3.75;2.25;;;;;19.22;76.32;100135.22;4946360;28;45525;-88
2022/10/20 10:33:23;;;;;;;;;1.75;1.75;;;;;18.99;76.24;100126.81;4951000;28;45645;-88
2022/10/20 10:35:49;;;;;;;;;3.50;2.75;;;;;19.32;76.38;100189.91;4964360;28;45483;-87
2022/10/20 10:38:14;;;;;;;;;4.00;2.00;;;;;19.14;78.10;100158.91;4958151;28;45245;-87
2022/10/20 10:40:48;;;;;;;;;4.00;2.75;;;;;19.70;78.53;100250.94;4953972;28;45535;-88
2022/10/20 10:43:40;;;;;;;;;3.25;3.25;;;;;19.66;76.12;100252.13;4949541;28;45525;-87
2022/10/20 10:46:11;;;;;;;;;3.25;1.00;;;;;18.67;75.42;100098.44;4964488;28;45318;-87
2022/10/20 10:49:05;;;;;;;;;3.25;1.75;;;;;18.86;75.57;100122.28;4938805;28;45527;-87
2022/10/20 10:52:04;;;;;;;;;0.50;0.50;;;;;19.75;76.88;100247.13;4941681;28;45502;-86
2022/10/20 10:55:00;;;;;;;;;1.75;1.75;;;;;19.32;78.45;100130.97;4942330;28;45482;-88
2022/10/20 10:57:31;;;;;;;;;2.25;1.50;;;;;20.40;76.08;100242.00;4968614;28;45464;-89
2022/10/20 11:00:00;;;;;;;;;1.00;1.00;;;;;19.61;74.31;100063.91;4948672;28;45357;-88
2022/10/20 11:02:44;;;;;;;;;1.50;1.00;;;;;21.02;74.16;100228.97;4955275;28;47123;-89
2022/10/20 11:05:19;;;;;;;;;2.00;2.00;;;;;21.18;74.49;100236.81;4947281;28;45901;-88
2022/10/20 11:07:50;;;;;;;;;1.25;1.25;;;;;20.49;71.88;100118.91;4956738;28;45403;-88
2022/10/20 11:10:41;;;;;;;;;1.75;1.00;;;;;21.30;69.25;100191.16;4953023;28;45207;-88
2022/10/20 11:13:31;;;;;;;;;1.00;1.00;;;;;21.61;69.52;100220.41;4943924;28;46544;-88
2022/10/20 11:16:00;;;;;;;;;1.00;1.00;;;;;21.54;66.06;100211.03;4948331;28;45560;-88
2022/10/20 11:18:40;;;;;;;;;1.25;0.00;;;;;21.70;68.82;100203.59;4955177;28;45457;-88
2022/10/20 11:21:05;;;;;;;;;1.00;0.50;;;;;21.95;66.91;100201.78;4946636;28;45527;-88
2022/10/20 11:24:08;;;;;;;;;1.00;1.00;;;;;21.96;65.93;100198.13;4946402;28;46950;-87
2022/10/20 11:26:37;;;;;;;;;1.00;1.00;;;;;21.24;64.99;100116.34;4955776;28;45465;-89